Time;durP1;ratioP1;P1;durP2;ratioP2;P2;SDS_P1;SDS_P2;PMS_P1;PMS_P2;Temp;Humidity;BMP_temperature;BMP_pressure;BME280_temperature;BME280_humidity;BME280_pressure;Samples;Min_cycle;Max_cycle;Signal;HPM_P1;HPM_P2
2021/08/16 00:00:43;;;;;;;13.40;6.65;;;;;;;15.59;100.00;97210.69;5040005;28;20471;-78
2021/08/16 00:03:14;;;;;;;15.52;5.78;;;;;;;15.54;100.00;97205.53;5036494;28;20053;-78
2021/08/16 00:05:41;;;;;;;14.07;6.05;;;;;;;15.59;100.00;97209.91;5038065;28;20045;-77
2021/08/16 00:08:10;;;;;;;14.35;5.72;;;;;;;15.58;100.00;97211.06;5045983;28;20069;-77
2021/08/16 00:10:38;;;;;;;12.07;5.47;;;;;;;15.52;100.00;97201.56;5044909;28;20046;-79
2021/08/16 00:13:04;;;;;;;14.68;5.05;;;;;;;15.49;100.00;97207.75;5042159;28;20092;-79
2021/08/16 00:15:31;;;;;;;8.80;4.85;;;;;;;15.42;100.00;97204.84;5049554;28;20067;-79
2021/08/16 00:18:03;;;;;;;10.30;5.22;;;;;;;15.41;100.00;97206.75;5045148;28;20042;-79
2021/08/16 00:20:30;;;;;;;13.85;5.95;;;;;;;15.38;100.00;97201.25;5041570;28;20099;-80
2021/08/16 00:22:57;;;;;;;11.07;5.68;;;;;;;15.42;100.00;97199.38;5040693;28;20045;-77
2021/08/16 00:25:23;;;;;;;17.17;5.70;;;;;;;15.50;100.00;97190.22;5042586;28;20089;-78
2021/08/16 00:27:50;;;;;;;8.73;4.93;;;;;;;15.57;100.00;97182.19;5041037;28;20045;-77
2021/08/16 00:30:18;;;;;;;12.90;5.28;;;;;;;15.59;100.00;97185.34;5041508;28;20045;-78
2021/08/16 00:32:45;;;;;;;11.32;5.10;;;;;;;15.66;100.00;97184.72;5044231;28;20056;-78
2021/08/16 00:35:12;;;;;;;10.15;5.30;;;;;;;15.68;100.00;97182.41;5025645;28;20480;-77
2021/08/16 00:37:39;;;;;;;8.98;4.93;;;;;;;15.70;100.00;97180.91;5041387;28;20167;-76
2021/08/16 00:40:06;;;;;;;9.57;5.50;;;;;;;15.71;100.00;97170.78;5039737;28;20046;-80
2021/08/16 00:42:33;;;;;;;12.15;5.20;;;;;;;15.63;100.00;97171.78;5040811;28;20057;-79
2021/08/16 00:45:01;;;;;;;11.57;5.50;;;;;;;15.61;100.00;97161.25;5039817;28;20049;-78
2021/08/16 00:47:28;;;;;;;11.77;5.25;;;;;;;15.59;100.00;97158.84;5040047;28;20041;-78
2021/08/16 00:49:54;;;;;;;13.57;5.82;;;;;;;15.57;100.00;97163.09;5024248;28;20046;-80
2021/08/16 00:52:22;;;;;;;11.00;5.72;;;;;;;15.47;100.00;97160.94;5040489;28;20050;-79
2021/08/16 00:54:50;;;;;;;9.18;5.15;;;;;;;15.43;100.00;97154.59;5038337;28;20113;-78
2021/08/16 00:57:17;;;;;;;10.38;5.30;;;;;;;15.40;100.00;97155.31;5037955;28;20049;-80
2021/08/16 00:59:44;;;;;;;10.70;5.47;;;;;;;15.29;100.00;97159.72;5038430;28;20046;-80
2021/08/16 01:02:11;;;;;;;10.82;5.40;;;;;;;15.18;100.00;97159.50;5034885;28;20092;-78
2021/08/16 01:04:38;;;;;;;13.18;5.35;;;;;;;15.12;100.00;97151.97;5017133;28;20045;-80
2021/08/16 01:07:05;;;;;;;16.30;5.25;;;;;;;15.11;100.00;97153.88;5040966;28;20060;-78
2021/08/16 01:09:33;;;;;;;12.75;5.22;;;;;;;15.18;100.00;97151.31;5042275;28;20052;-79
2021/08/16 01:11:59;;;;;;;8.25;5.10;;;;;;;15.19;100.00;97155.63;5036733;28;20045;-78
2021/08/16 01:14:26;;;;;;;11.40;5.03;;;;;;;15.22;100.00;97144.03;5038498;28;20045;-79
2021/08/16 01:16:53;;;;;;;10.30;5.40;;;;;;;15.27;100.00;97138.28;5039022;28;20129;-79
2021/08/16 01:19:21;;;;;;;11.32;5.03;;;;;;;15.30;100.00;97136.78;5039378;28;20487;-80
2021/08/16 01:21:48;;;;;;;9.55;5.05;;;;;;;15.18;100.00;97125.97;5057353;28;20045;-78
2021/08/16 01:24:16;;;;;;;10.60;5.38;;;;;;;15.17;100.00;97132.59;5037489;28;20050;-79
2021/08/16 01:26:43;;;;;;;8.35;5.57;;;;;;;15.16;100.00;97128.28;5036472;28;20118;-80
2021/08/16 01:29:23;;;;;;;13.65;5.60;;;;;;;15.01;100.00;97129.91;5038282;28;20462;-80
2021/08/16 01:31:59;;;;;;;12.05;4.88;;;;;;;14.94;100.00;97127.81;5017753;28;20092;-78
2021/08/16 01:34:26;;;;;;;12.93;4.90;;;;;;;14.96;100.00;97130.19;5034240;28;20053;-80
2021/08/16 01:36:53;;;;;;;8.82;5.05;;;;;;;14.91;100.00;97117.63;5034647;28;20112;-78
2021/08/16 01:39:20;;;;;;;11.90;5.47;;;;;;;14.89;100.00;97121.84;5033781;28;20053;-78
2021/08/16 01:41:48;;;;;;;9.93;5.20;;;;;;;14.67;100.00;97112.38;5035384;28;20041;-78
2021/08/16 01:44:16;;;;;;;10.68;5.45;;;;;;;14.63;100.00;97119.69;5034404;28;20108;-79
2021/08/16 01:46:43;;;;;;;14.40;5.70;;;;;;;14.59;100.00;97118.81;5035107;28;20048;-78
2021/08/16 01:49:12;;;;;;;17.77;5.63;;;;;;;14.59;100.00;97118.81;5034170;28;20476;-79
2021/08/16 01:51:40;;;;;;;12.38;6.10;;;;;;;14.63;100.00;97111.53;5034412;28;20099;-79
2021/08/16 01:54:09;;;;;;;9.75;5.45;;;;;;;14.77;100.00;97113.78;5032122;28;20068;-78
2021/08/16 01:56:38;;;;;;;12.23;5.80;;;;;;;14.79;100.00;97112.28;5035184;28;20037;-79
2021/08/16 01:59:05;;;;;;;10.93;5.63;;;;;;;14.76;100.00;97110.25;5033515;28;20068;-79
2021/08/16 02:01:31;;;;;;;11.95;5.80;;;;;;;14.63;100.00;97103.34;5032528;28;20499;-79
2021/08/16 02:03:58;;;;;;;9.73;5.53;;;;;;;14.59;100.00;97109.84;5031543;28;20518;-78
2021/08/16 02:06:25;;;;;;;9.38;5.50;;;;;;;14.39;100.00;97067.34;5043161;23;20067;-81
2021/08/16 02:08:52;;;;;;;12.45;5.88;;;;;;;14.60;100.00;97106.00;5067155;28;20197;-81
2021/08/16 02:11:20;;;;;;;13.48;6.07;;;;;;;14.43;100.00;97070.97;5070367;28;20056;-81
2021/08/16 02:13:49;;;;;;;12.27;5.80;;;;;;;14.35;100.00;97062.59;5076508;28;20029;-80
2021/08/16 02:16:16;;;;;;;11.15;5.55;;;;;;;14.25;100.00;97062.31;5077786;28;20039;-79
2021/08/16 02:18:46;;;;;;;10.05;5.70;;;;;;;14.27;100.00;97063.53;5079914;28;20017;-80
2021/08/16 02:21:16;;;;;;;10.57;5.40;;;;;;;14.23;100.00;97040.09;5072659;28;20063;-81
2021/08/16 02:23:43;;;;;;;11.63;5.25;;;;;;;14.11;100.00;97042.94;5069389;28;20047;-80
2021/08/16 02:26:10;;;;;;;15.07;5.95;;;;;;;14.14;100.00;97074.91;5067712;28;20029;-81
2021/08/16 02:28:36;;;;;;;10.38;5.80;;;;;;;13.95;100.00;97056.53;5067220;28;20076;-79
2021/08/16 02:31:14;;;;;;;11.35;5.25;;;;;;;14.20;100.00;97082.44;5067736;28;20041;-80
2021/08/16 02:33:43;;;;;;;12.70;6.00;;;;;;;14.27;100.00;97085.31;5067297;28;20071;-79
2021/08/16 02:36:10;;;;;;;8.32;4.97;;;;;;;14.17;100.00;97072.25;5067446;28;20038;-80
2021/08/16 02:38:39;;;;;;;9.30;5.70;;;;;;;14.16;100.00;97075.31;5068543;28;20052;-81
2021/08/16 02:41:09;;;;;;;7.90;5.43;;;;;;;14.15;100.00;97077.25;5068531;28;20133;-81
2021/08/16 02:43:35;;;;;;;11.85;5.60;;;;;;;14.07;100.00;97069.25;5084008;28;20321;-80
2021/08/16 02:46:05;;;;;;;8.63;4.32;;;;;;;14.17;100.00;97079.59;5067089;28;20036;-81
2021/08/16 02:48:31;;;;;;;11.77;5.57;;;;;;;14.19;100.00;97072.69;5067479;28;20075;-81
2021/08/16 02:50:58;;;;;;;9.60;5.20;;;;;;;14.20;100.00;97076.19;5082561;28;20554;-81
2021/08/16 02:53:27;;;;;;;10.05;6.15;;;;;;;14.23;100.00;97070.84;5083056;28;20049;-81
2021/08/16 02:55:54;;;;;;;14.15;6.05;;;;;;;14.17;100.00;97074.97;5066771;28;20045;-79
2021/08/16 02:58:21;;;;;;;12.55;5.53;;;;;;;14.14;100.00;97069.44;5068525;28;20051;-80
2021/08/16 03:00:47;;;;;;;12.55;5.68;;;;;;;14.06;100.00;97076.66;5068289;28;20051;-79
2021/08/16 03:03:14;;;;;;;11.57;5.85;;;;;;;14.04;100.00;97078.16;5067805;28;20055;-80
2021/08/16 03:05:41;;;;;;;14.23;6.45;;;;;;;13.98;100.00;97069.44;5083577;28;20070;-81
2021/08/16 03:08:07;;;;;;;14.93;6.25;;;;;;;13.99;100.00;97075.69;5083667;28;20060;-80
2021/08/16 03:10:36;;;;;;;11.52;7.10;;;;;;;14.08;100.00;97079.81;5079844;28;20049;-81
2021/08/16 03:13:03;;;;;;;11.80;6.57;;;;;;;14.12;100.00;97079.88;5077183;28;20048;-79
2021/08/16 03:15:30;;;;;;;10.93;6.80;;;;;;;14.11;100.00;97070.16;5068460;28;20056;-79
2021/08/16 03:17:59;;;;;;;10.93;5.90;;;;;;;14.05;100.00;97064.16;5088202;28;20037;-80
2021/08/16 03:20:27;;;;;;;12.90;5.65;;;;;;;14.09;100.00;97065.03;5069456;28;20087;-81
2021/08/16 03:22:56;;;;;;;12.32;5.60;;;;;;;14.16;100.00;97054.34;5069415;28;20045;-81
2021/08/16 03:25:22;;;;;;;13.10;5.57;;;;;;;14.20;100.00;97063.38;5066496;28;20052;-82
2021/08/16 03:27:49;;;;;;;14.50;6.43;;;;;;;14.16;100.00;97057.06;5066943;28;20033;-80
2021/08/16 03:30:16;;;;;;;14.55;5.68;;;;;;;14.11;100.00;97051.09;5065853;28;20072;-80
2021/08/16 03:32:43;;;;;;;10.88;5.97;;;;;;;14.09;100.00;97051.44;5067844;28;20108;-80
2021/08/16 03:35:10;;;;;;;13.52;6.28;;;;;;;14.14;100.00;97056.59;5066862;28;20045;-79
2021/08/16 03:37:37;;;;;;;10.18;5.90;;;;;;;14.06;100.00;97054.06;5066987;28;20040;-81
2021/08/16 03:40:05;;;;;;;18.13;6.30;;;;;;;14.07;100.00;97061.88;5066548;28;20083;-79
2021/08/16 03:42:32;;;;;;;17.27;6.25;;;;;;;14.01;100.00;97051.63;5066418;28;20080;-80
2021/08/16 03:44:58;;;;;;;18.33;6.22;;;;;;;14.01;100.00;97048.91;5064833;28;20044;-80
2021/08/16 03:47:25;;;;;;;15.15;6.20;;;;;;;13.94;100.00;97045.97;5059867;28;20071;-80
2021/08/16 03:49:54;;;;;;;13.75;6.65;;;;;;;14.02;100.00;97051.25;5062395;28;20072;-81
2021/08/16 03:52:25;;;;;;;10.93;6.32;;;;;;;13.93;100.00;97056.09;5045883;28;20057;-80
2021/08/16 03:54:52;;;;;;;14.32;6.60;;;;;;;13.82;100.00;97032.47;5045854;28;20073;-81
2021/08/16 03:57:22;;;;;;;15.43;6.60;;;;;;;13.94;100.00;97035.88;5043438;28;20069;-80
2021/08/16 03:59:49;;;;;;;10.30;6.28;;;;;;;13.93;100.00;97028.09;5060604;28;20041;-82
2021/08/16 04:02:16;;;;;;;10.85;6.22;;;;;;;14.04;100.00;97045.47;5045648;28;20581;-81
2021/08/16 04:04:43;;;;;;;10.48;6.10;;;;;;;14.06;100.00;97046.72;5043239;28;20071;-80
2021/08/16 04:07:10;;;;;;;16.67;6.82;;;;;;;14.09;100.00;97031.59;5054144;28;20079;-82
2021/08/16 04:09:37;;;;;;;11.77;7.05;;;;;;;14.20;100.00;97038.06;5062647;28;20071;-82
2021/08/16 04:12:05;;;;;;;12.50;7.43;;;;;;;14.26;100.00;97034.75;5061825;28;20051;-80
2021/08/16 04:14:48;;;;;;;18.90;8.15;;;;;;;14.43;100.00;97041.78;5064700;28;20052;-81
2021/08/16 04:17:15;;;;;;;12.63;7.47;;;;;;;14.75;100.00;97050.69;5076746;28;20049;-81
2021/08/16 04:19:42;;;;;;;13.63;7.88;;;;;;;15.04;100.00;97049.34;5060630;28;20587;-82
2021/08/16 04:22:09;;;;;;;16.73;9.05;;;;;;;15.41;100.00;97048.56;5057876;28;20056;-81
2021/08/16 04:24:35;;;;;;;17.38;8.82;;;;;;;16.10;100.00;97052.19;5066361;28;20033;-81
2021/08/16 04:27:02;;;;;;;13.73;8.05;;;;;;;16.52;100.00;97044.69;5047910;28;20054;-81
2021/08/16 04:29:29;;;;;;;14.90;7.88;;;;;;;16.91;100.00;97039.00;5040880;28;20044;-80
2021/08/16 04:31:56;;;;;;;15.02;7.75;;;;;;;17.40;100.00;97029.47;5047555;28;20048;-81
2021/08/16 04:34:23;;;;;;;13.70;7.60;;;;;;;17.51;100.00;97026.84;5033329;28;20042;-81
2021/08/16 04:36:50;;;;;;;14.70;7.22;;;;;;;17.84;100.00;97029.56;5034488;28;20065;-80
2021/08/16 04:39:18;;;;;;;14.65;7.00;;;;;;;17.91;100.00;97015.19;5033095;28;20363;-81
2021/08/16 04:41:44;;;;;;;10.38;6.72;;;;;;;18.01;100.00;97011.75;5036840;28;20056;-81
2021/08/16 04:44:11;;;;;;;10.45;6.70;;;;;;;18.20;100.00;97018.94;5034408;28;20101;-81
2021/08/16 04:46:37;;;;;;;11.00;6.88;;;;;;;18.31;100.00;97004.16;5033748;28;20045;-81
2021/08/16 04:49:04;;;;;;;15.50;7.00;;;;;;;18.40;100.00;97007.34;5016703;28;20072;-80
2021/08/16 04:51:31;;;;;;;15.15;6.78;;;;;;;18.62;100.00;97006.38;5034311;28;20080;-81
2021/08/16 04:53:57;;;;;;;20.73;7.07;;;;;;;18.81;100.00;97005.31;5035984;28;20388;-82
2021/08/16 04:56:24;;;;;;;11.88;7.00;;;;;;;18.96;100.00;97006.16;5037638;28;20069;-80
2021/08/16 04:58:50;;;;;;;11.40;6.45;;;;;;;19.00;100.00;96990.50;5038394;28;20063;-81
2021/08/16 05:01:17;;;;;;;13.65;6.38;;;;;;;19.19;100.00;97007.44;5053462;28;20055;-80
2021/08/16 05:03:44;;;;;;;11.95;6.60;;;;;;;19.27;100.00;97009.06;5064857;28;20045;-81
2021/08/16 05:06:13;;;;;;;13.35;6.30;;;;;;;19.47;100.00;97011.47;5091633;28;20053;-80
2021/08/16 05:08:41;;;;;;;9.93;6.43;;;;;;;19.64;100.00;97016.25;5071969;28;20035;-81
2021/08/16 05:11:07;;;;;;;20.85;6.82;;;;;;;19.71;100.00;97000.56;5079163;28;20020;-80
2021/08/16 05:13:34;;;;;;;13.15;5.88;;;;;;;19.88;100.00;97010.81;5059684;28;20153;-81
2021/08/16 05:16:01;;;;;;;10.15;5.90;;;;;;;20.16;100.00;97009.25;5047241;28;20099;-80
2021/08/16 05:18:28;;;;;;;10.55;5.72;;;;;;;20.34;100.00;96999.84;5049702;28;20418;-79
2021/08/16 05:20:56;;;;;;;11.18;5.90;;;;;;;20.61;100.00;97015.94;5056694;28;20097;-82
2021/08/16 05:23:22;;;;;;;11.40;5.65;;;;;;;20.85;100.00;97007.63;5075127;28;20044;-79
2021/08/16 05:25:49;;;;;;;9.43;5.72;;;;;;;21.04;100.00;97025.66;5061454;28;20047;-80
2021/08/16 05:28:16;;;;;;;11.57;5.93;;;;;;;21.22;100.00;97006.34;5075588;28;20052;-79
2021/08/16 05:30:44;;;;;;;9.32;5.35;;;;;;;21.43;100.00;97009.81;5076380;28;20059;-80
2021/08/16 05:33:12;;;;;;;10.13;5.70;;;;;;;21.70;100.00;97013.59;5089338;28;20057;-79
2021/08/16 05:35:38;;;;;;;12.70;5.25;;;;;;;21.98;100.00;97009.94;5071651;28;20555;-80
2021/08/16 05:38:05;;;;;;;12.30;5.50;;;;;;;22.08;100.00;97016.53;5071131;28;20453;-80
2021/08/16 05:40:32;;;;;;;9.68;5.53;;;;;;;22.18;100.00;97013.72;5070800;28;20049;-81
2021/08/16 05:42:59;;;;;;;9.45;5.82;;;;;;;22.16;100.00;97018.84;5071709;28;20505;-81
2021/08/16 05:45:26;;;;;;;8.80;5.63;;;;;;;22.29;100.00;97014.41;5055500;28;20139;-80
2021/08/16 05:47:53;;;;;;;11.73;6.05;;;;;;;22.26;100.00;97006.16;5068335;28;20403;-79
2021/08/16 05:50:22;;;;;;;11.73;5.53;;;;;;;22.38;100.00;97018.69;5050419;28;20078;-82
2021/08/16 05:52:50;;;;;;;10.45;5.72;;;;;;;22.51;100.00;97028.78;5065913;28;20049;-79
2021/08/16 05:55:17;;;;;;;14.57;5.70;;;;;;;22.49;100.00;97022.13;5070019;28;20464;-79
2021/08/16 05:57:44;;;;;;;13.25;5.97;;;;;;;22.60;100.00;97012.56;5071401;28;20067;-80
2021/08/16 06:00:14;;;;;;;11.38;6.35;;;;;;;22.55;100.00;97020.50;5071674;28;20048;-81
2021/08/16 06:02:41;;;;;;;10.68;5.75;;;;;;;22.44;100.00;97012.31;5069987;28;20053;-80
2021/08/16 06:05:08;;;;;;;14.52;6.32;;;;;;;22.37;100.00;97023.41;5051397;28;20102;-79
2021/08/16 06:07:34;;;;;;;12.80;6.40;;;;;;;22.24;100.00;97036.91;5066510;28;20033;-81
2021/08/16 06:10:13;;;;;;;12.80;6.13;;;;;;;22.42;100.00;97055.28;5042886;28;20289;-80
2021/08/16 06:12:40;;;;;;;14.10;6.10;;;;;;;22.50;100.00;97048.53;5044306;28;20064;-80
2021/08/16 06:15:08;;;;;;;14.82;6.10;;;;;;;22.51;100.00;97050.06;5049582;28;20045;-80
2021/08/16 06:17:37;;;;;;;10.95;6.47;;;;;;;22.54;100.00;97046.50;5053160;28;20041;-80
2021/08/16 06:20:06;;;;;;;16.90;7.05;;;;;;;22.65;100.00;97055.53;5048946;28;20038;-80
2021/08/16 06:22:34;;;;;;;9.25;5.85;;;;;;;22.53;100.00;97051.25;5034049;28;20084;-79
2021/08/16 06:25:00;;;;;;;14.43;7.00;;;;;;;22.55;100.00;97037.84;5033182;28;20128;-80
2021/08/16 06:27:27;;;;;;;11.32;6.38;;;;;;;22.40;100.00;97047.44;5036324;28;20237;-80
2021/08/16 06:29:54;;;;;;;12.10;7.00;;;;;;;22.28;100.00;97062.47;5034117;28;20049;-81
2021/08/16 06:32:20;;;;;;;12.77;6.50;;;;;;;22.05;100.00;97053.97;5032606;28;20046;-80
2021/08/16 06:34:49;;;;;;;12.07;6.20;;;;;;;21.83;100.00;97055.28;5034480;28;20041;-79
2021/08/16 06:37:21;;;;;;;12.13;6.80;;;;;;;21.83;100.00;97071.81;5035269;28;20042;-80
2021/08/16 06:39:48;;;;;;;13.13;6.78;;;;;;;21.79;100.00;97060.00;5017372;28;20052;-80
2021/08/16 06:42:15;;;;;;;16.80;7.35;;;;;;;21.86;100.00;97056.47;5016251;28;20045;-80
2021/08/16 06:44:42;;;;;;;12.63;6.90;;;;;;;22.03;100.00;97066.59;5062378;28;20319;-79
2021/08/16 06:47:10;;;;;;;10.98;7.32;;;;;;;22.09;100.00;97060.25;5057151;28;20060;-79
2021/08/16 06:49:37;;;;;;;13.15;6.88;;;;;;;22.24;100.00;97077.50;5070074;28;20049;-79
2021/08/16 06:52:07;;;;;;;13.48;7.03;;;;;;;22.30;100.00;97076.66;5056823;28;20052;-77
2021/08/16 06:54:36;;;;;;;17.35;7.20;;;;;;;22.40;100.00;97065.94;5057537;28;20391;-81
2021/08/16 06:57:03;;;;;;;14.73;7.25;;;;;;;22.23;100.00;97065.66;5060016;28;20049;-79
2021/08/16 06:59:32;;;;;;;13.35;7.40;;;;;;;21.96;100.00;97061.94;5066041;28;20045;-79
2021/08/16 07:02:01;;;;;;;13.77;7.40;;;;;;;21.92;100.00;97063.91;5062975;28;20068;-79
2021/08/16 07:04:28;;;;;;;13.68;7.20;;;;;;;22.03;100.00;97077.63;5064385;28;20045;-78
2021/08/16 07:06:55;;;;;;;17.25;7.68;;;;;;;22.23;100.00;97076.69;5065035;28;20049;-79
2021/08/16 07:09:22;;;;;;;13.00;6.78;;;;;;;22.37;100.00;97078.59;5044504;28;20056;-79
2021/08/16 07:11:51;;;;;;;10.07;6.38;;;;;;;22.27;100.00;97076.69;5055982;28;20063;-77
2021/08/16 07:14:19;;;;;;;11.77;7.00;;;;;;;22.27;100.00;97079.44;5073853;28;20037;-81
2021/08/16 07:16:50;;;;;;;12.13;6.88;;;;;;;22.33;100.00;97073.06;5082538;28;20051;-80
2021/08/16 07:19:17;;;;;;;15.70;7.38;;;;;;;22.45;100.00;97076.56;5078283;28;20498;-78
2021/08/16 07:21:46;;;;;;;11.02;6.90;;;;;;;22.24;100.00;97075.53;5074817;28;20056;-80
2021/08/16 07:24:13;;;;;;;13.90;7.20;;;;;;;22.15;100.00;97088.16;5046441;28;20041;-80
2021/08/16 07:26:40;;;;;;;16.27;7.25;;;;;;;21.92;100.00;97088.72;5048629;28;20057;-80
2021/08/16 07:29:07;;;;;;;14.43;7.35;;;;;;;21.80;100.00;97080.09;5060710;28;20045;-79
2021/08/16 07:31:33;;;;;;;15.25;6.88;;;;;;;21.70;100.00;97081.72;5054780;28;20045;-79
2021/08/16 07:34:00;;;;;;;13.38;6.93;;;;;;;21.86;100.00;97078.53;5053270;28;20044;-79
2021/08/16 07:36:27;;;;;;;12.55;6.47;;;;;;;21.87;100.00;97083.63;5052576;28;20044;-80
2021/08/16 07:38:53;;;;;;;12.30;6.80;;;;;;;21.84;100.00;97081.63;5089975;28;20055;-80
2021/08/16 07:41:20;;;;;;;8.82;5.97;;;;;;;21.88;100.00;97082.44;5073883;28;20045;-79
2021/08/16 07:43:46;;;;;;;14.45;6.10;;;;;;;22.00;100.00;97073.69;5073820;28;20046;-79
2021/08/16 07:46:15;;;;;;;10.63;6.10;;;;;;;22.25;100.00;97093.63;5076526;28;20044;-80
2021/08/16 07:48:42;;;;;;;10.68;6.28;;;;;;;22.55;100.00;97079.22;5077609;28;20255;-79
2021/08/16 07:51:08;;;;;;;15.25;6.20;;;;;;;22.80;100.00;97096.38;5084417;28;20051;-80
2021/08/16 07:53:35;;;;;;;13.82;5.63;;;;;;;22.95;100.00;97097.81;5082406;28;20398;-80
2021/08/16 07:56:01;;;;;;;10.70;5.32;;;;;;;22.94;100.00;97098.25;5084238;28;20045;-78
2021/08/16 07:58:28;;;;;;;12.13;5.53;;;;;;;23.10;100.00;97095.69;5087269;28;20056;-79
2021/08/16 08:00:55;;;;;;;12.27;5.32;;;;;;;22.96;100.00;97109.66;5092468;28;20036;-81
2021/08/16 08:03:22;;;;;;;14.07;5.60;;;;;;;22.91;100.00;97099.06;5093094;28;20277;-80
2021/08/16 08:05:49;;;;;;;8.82;4.90;;;;;;;23.27;100.00;97111.31;5095252;23;20128;-83
2021/08/16 08:08:18;;;;;;;12.43;5.68;;;;;;;23.39;100.00;97107.25;5053071;28;20043;-82
2021/08/16 08:10:45;;;;;;;10.38;5.55;;;;;;;23.19;100.00;97112.59;5051680;28;20044;-82
2021/08/16 08:13:14;;;;;;;10.60;5.40;;;;;;;23.65;100.00;97123.16;5065534;28;20599;-83
2021/08/16 08:15:40;;;;;;;15.25;6.05;;;;;;;23.16;100.00;97131.94;5071398;28;20047;-81
2021/08/16 08:18:10;;;;;;;11.68;6.03;;;;;;;23.04;100.00;97121.41;5072757;28;20039;-82
2021/08/16 08:20:39;;;;;;;9.10;5.30;;;;;;;23.20;100.00;97119.66;5070803;28;20116;-86
2021/08/16 08:23:08;;;;;;;12.35;5.70;;;;;;;23.51;100.00;97124.09;5047799;28;20560;-82
2021/08/16 08:25:39;;;;;;;11.43;5.38;;;;;;;23.73;100.00;97132.13;5030192;28;20045;-83
2021/08/16 08:28:17;;;;;;;14.27;5.53;;;;;;;23.82;100.00;97118.63;5029045;28;20482;-79
2021/08/16 08:30:48;;;;;;;8.38;4.93;;;;;;;24.21;100.00;97127.19;5028750;28;20048;-82
2021/08/16 08:33:18;;;;;;;10.88;5.53;;;;;;;24.21;100.00;97118.91;5028993;28;20049;-82
2021/08/16 08:35:46;;;;;;;11.25;4.97;;;;;;;23.82;100.00;97119.38;5029481;28;20414;-82
2021/08/16 08:38:17;;;;;;;10.30;4.80;;;;;;;23.66;100.00;97135.78;5029773;28;20048;-79
2021/08/16 08:40:49;;;;;;;12.88;5.55;;;;;;;23.40;100.00;97125.41;5048138;28;20041;-81
2021/08/16 08:43:16;;;;;;;13.73;5.28;;;;;;;23.43;100.00;97127.38;5051151;28;20542;-82
2021/08/16 08:45:45;;;;;;;8.23;4.95;;;;;;;23.35;100.00;97129.38;5072320;28;20052;-81
2021/08/16 08:48:18;;;;;;;8.93;4.95;;;;;;;23.39;100.00;97129.38;5072536;28;20040;-83
2021/08/16 08:50:50;;;;;;;20.65;4.55;;;;;;;23.71;100.00;97112.44;5073522;28;20094;-84
2021/08/16 08:53:17;;;;;;;11.80;4.72;;;;;;;23.49;100.00;97117.41;5081121;28;20052;-85
2021/08/16 08:55:44;;;;;;;11.75;4.35;;;;;;;23.32;100.00;97113.63;5074415;28;20051;-84
2021/08/16 08:58:14;;;;;;;9.63;4.55;;;;;;;23.35;100.00;97123.06;5072085;28;20040;-84
2021/08/16 09:00:41;;;;;;;10.98;5.20;;;;;;;22.83;100.00;97111.34;5071599;28;20056;-83
2021/08/16 09:03:10;;;;;;;8.30;4.45;;;;;;;22.56;100.00;97099.31;5072938;28;20526;-81
2021/08/16 09:06:06;;;;;;;10.80;4.80;;;;;;;22.99;100.00;97111.59;5072568;28;20063;-81
2021/08/16 09:08:35;;;;;;;10.50;4.75;;;;;;;23.06;100.00;97100.47;5060092;28;20083;-82
2021/08/16 09:11:05;;;;;;;8.40;4.88;;;;;;;22.93;100.00;97096.66;5073424;28;20512;-84
2021/08/16 09:13:32;;;;;;;13.45;4.93;;;;;;;22.95;100.00;97094.28;5073260;28;20048;-83
2021/08/16 09:16:07;;;;;;;14.70;5.40;;;;;;;23.46;100.00;97102.44;5071563;28;20052;-82
2021/08/16 09:18:34;;;;;;;10.18;5.18;;;;;;;23.41;100.00;97107.63;5074642;28;20041;-83
2021/08/16 09:21:01;;;;;;;15.05;5.35;;;;;;;23.42;100.00;97103.69;5076789;28;20054;-79
2021/08/16 09:23:28;;;;;;;12.60;5.55;;;;;;;23.19;100.00;97103.50;5081012;28;20071;-83
2021/08/16 09:25:57;;;;;;;12.63;5.35;;;;;;;22.83;100.00;97109.38;5094789;28;20044;-83
2021/08/16 09:28:33;;;;;;;16.98;5.25;;;;;;;22.95;100.00;97095.06;5054357;28;20478;-81
2021/08/16 09:31:14;;;;;;;14.38;5.03;;;;;;;23.13;100.00;97097.63;5053828;28;20081;-79
2021/08/16 09:33:52;;;;;;;133.70;11.32;;;;;;;24.03;100.00;97097.00;5036853;28;20438;-82
2021/08/16 09:36:18;;;;;;;8.63;5.20;;;;;;;24.39;100.00;97108.34;5052792;28;20052;-81
2021/08/16 09:38:45;;;;;;;23.38;5.22;;;;;;;24.02;100.00;97097.41;5052566;28;20441;-82
2021/08/16 09:41:21;;;;;;;40.25;6.38;;;;;;;23.92;100.00;97106.63;5053902;28;20056;-80
2021/08/16 09:43:47;;;;;;;9.37;4.50;;;;;;;23.36;100.00;97114.41;5069770;28;20468;-80
2021/08/16 09:46:19;;;;;;;9.15;4.80;;;;;;;23.30;100.00;97109.72;5074164;28;20048;-81
2021/08/16 09:49:03;;;;;;;9.93;4.70;;;;;;;24.07;100.00;97108.00;5077414;28;20036;-83
2021/08/16 09:51:32;;;;;;;10.40;4.55;;;;;;;24.64;100.00;97096.91;5093452;28;20059;-85
2021/08/16 09:54:03;;;;;;;20.67;4.60;;;;;;;24.34;100.00;97105.31;5071769;28;20052;-81
2021/08/16 09:56:31;;;;;;;9.38;4.28;;;;;;;23.93;100.00;97116.47;5087521;28;20044;-81
2021/08/16 09:59:00;;;;;;;11.63;4.55;;;;;;;25.06;100.00;97115.59;5072662;28;20052;-79
2021/08/16 10:01:35;;;;;;;15.52;4.70;;;;;;;24.62;100.00;97107.63;5032194;28;20048;-82
2021/08/16 10:04:30;;;;;;;27.58;4.95;;;;;;;24.46;100.00;97107.47;5025607;28;20044;-81
2021/08/16 10:07:22;;;;;;;12.48;4.57;;;;;;;24.75;100.00;97111.38;5028212;28;20034;-80
2021/08/16 10:10:16;;;;;;;9.65;4.22;;;;;;;24.97;100.00;97106.28;5018143;28;20072;-81
2021/08/16 10:12:46;;;;;;;12.23;4.20;;;;;;;25.44;100.00;97099.47;5048710;28;20076;-82
2021/08/16 10:15:14;;;;;;;28.30;5.25;;;;;;;26.11;88.85;97095.34;5065286;28;20712;-81
2021/08/16 10:17:43;;;;;;;11.07;4.28;;;;;;;25.91;83.42;97098.13;5050611;28;20132;-82
2021/08/16 10:20:15;;;;;;;11.10;4.45;;;;;;;25.72;78.22;97095.38;5066377;28;20044;-81
2021/08/16 10:22:42;;;;;;;11.75;4.63;;;;;;;26.19;75.23;97094.00;5054047;28;20091;-80
2021/08/16 10:25:14;;;;;;;12.75;4.07;;;;;;;25.36;83.06;97086.97;5048849;28;20152;-80
2021/08/16 10:27:41;;;;;;;8.95;4.30;;;;;;;25.07;82.62;97089.47;5059011;28;20045;-81
2021/08/16 10:30:15;;;;;;;11.45;4.65;;;;;;;25.14;82.14;97086.56;5069196;28;20105;-83
2021/08/16 10:32:43;;;;;;;10.55;4.03;;;;;;;27.17;73.23;97076.16;5051227;28;20053;-81
2021/08/16 10:35:18;;;;;;;11.38;4.32;;;;;;;27.14;66.10;97060.34;5033731;28;20060;-81
2021/08/16 10:37:48;;;;;;;8.73;4.45;;;;;;;25.91;71.92;97078.72;5059262;28;20056;-83
2021/08/16 10:40:21;;;;;;;10.68;4.60;;;;;;;25.42;84.96;97079.72;5069005;28;20537;-81
2021/08/16 10:42:51;;;;;;;7.28;4.10;;;;;;;25.15;83.08;97076.28;5070600;28;20040;-81
2021/08/16 10:45:35;;;;;;;12.05;4.50;;;;;;;24.27;89.89;97086.00;5085608;28;20051;-82
2021/08/16 10:48:10;;;;;;;8.40;3.92;;;;;;;24.28;83.01;97076.53;5053951;28;20121;-83
2021/08/16 10:50:40;;;;;;;10.73;4.32;;;;;;;24.11;91.76;97064.50;5053985;28;20072;-80
2021/08/16 10:53:11;;;;;;;14.00;4.68;;;;;;;23.96;96.44;97071.41;5069607;28;20040;-83
2021/08/16 10:55:43;;;;;;;10.48;4.35;;;;;;;24.63;87.00;97070.41;5071217;28;20048;-84
2021/08/16 10:58:11;;;;;;;7.82;4.38;;;;;;;24.76;96.43;97066.63;5052597;28;20040;-79
2021/08/16 11:00:42;;;;;;;14.68;4.75;;;;;;;27.07;64.71;97064.06;5052550;28;20052;-83
2021/08/16 11:03:09;;;;;;;8.88;4.03;;;;;;;27.72;58.42;97042.41;5070578;28;20054;-83
2021/08/16 11:05:40;;;;;;;11.63;4.50;;;;;;;28.04;52.86;97054.63;5059610;28;20135;-85
2021/08/16 11:08:10;;;;;;;8.18;4.10;;;;;;;28.54;51.03;97040.72;5052633;28;20107;-83
2021/08/16 11:10:42;;;;;;;9.70;4.50;;;;;;;28.97;48.59;97056.81;5051885;28;20183;-84
2021/08/16 11:13:17;;;;;;;8.50;4.28;;;;;;;28.73;52.47;97058.41;5064852;28;20101;-84
2021/08/16 11:15:51;;;;;;;9.30;4.18;;;;;;;28.48;47.78;97038.94;5071197;28;20528;-84
2021/08/16 11:18:21;;;;;;;11.88;3.95;;;;;;;29.15;44.92;97040.25;5070799;28;20040;-82
2021/08/16 11:20:59;;;;;;;9.55;4.10;;;;;;;29.15;47.19;97037.44;5070859;28;20408;-84
2021/08/16 11:23:27;;;;;;;12.10;3.58;;;;;;;28.00;46.40;97043.59;5071221;28;20094;-82
2021/08/16 11:25:58;;;;;;;8.60;3.60;;;;;;;28.21;43.84;97042.94;5054462;28;20079;-83